sensor_id;sensor_type;location;lat;lon;timestamp;pressure;altitude;pressure_sealevel;temperature;humidity
34124;BME280;13153;52.316;21.166;2022-11-20T00:01:28;100300.50;;;0.33;53.34
34124;BME280;13153;52.316;21.166;2022-11-20T00:03:56;100311.66;;;0.32;53.29
34124;BME280;13153;52.316;21.166;2022-11-20T00:06:24;100316.72;;;0.30;53.18
34124;BME280;13153;52.316;21.166;2022-11-20T00:08:50;100315.63;;;0.27;53.54
34124;BME280;13153;52.316;21.166;2022-11-20T00:11:21;100307.78;;;0.25;53.43
34124;BME280;13153;52.316;21.166;2022-11-20T00:13:51;100318.59;;;0.20;53.40
34124;BME280;13153;52.316;21.166;2022-11-20T00:16:20;100309.84;;;0.18;53.62
34124;BME280;13153;52.316;21.166;2022-11-20T00:18:47;100315.03;;;0.18;53.53
34124;BME280;13153;52.316;21.166;2022-11-20T00:21:22;100315.63;;;0.14;53.79
34124;BME280;13153;52.316;21.166;2022-11-20T00:23:50;100311.63;;;0.06;53.72
34124;BME280;13153;52.316;21.166;2022-11-20T00:26:19;100315.78;;;0.04;54.11
34124;BME280;13153;52.316;21.166;2022-11-20T00:28:51;100307.94;;;0.02;54.36
34124;BME280;13153;52.316;21.166;2022-11-20T00:31:18;100316.50;;;0.01;53.99
34124;BME280;13153;52.316;21.166;2022-11-20T00:33:44;100312.16;;;0.00;54.37
34124;BME280;13153;52.316;21.166;2022-11-20T00:36:15;100315.53;;;-0.01;54.05
34124;BME280;13153;52.316;21.166;2022-11-20T00:38:41;100314.53;;;-0.03;54.43
34124;BME280;13153;52.316;21.166;2022-11-20T00:41:10;100317.00;;;-0.05;54.23
34124;BME280;13153;52.316;21.166;2022-11-20T00:43:37;100312.41;;;-0.09;54.46
34124;BME280;13153;52.316;21.166;2022-11-20T00:46:10;100308.25;;;-0.07;54.66
34124;BME280;13153;52.316;21.166;2022-11-20T00:48:37;100304.66;;;-0.09;54.15
34124;BME280;13153;52.316;21.166;2022-11-20T00:51:04;100306.56;;;-0.06;54.48
34124;BME280;13153;52.316;21.166;2022-11-20T00:53:30;100317.00;;;-0.05;54.18
34124;BME280;13153;52.316;21.166;2022-11-20T00:56:02;100311.16;;;-0.02;54.32
34124;BME280;13153;52.316;21.166;2022-11-20T00:58:36;100301.28;;;-0.08;54.45
34124;BME280;13153;52.316;21.166;2022-11-20T01:01:14;100301.97;;;-0.10;54.98
34124;BME280;13153;52.316;21.166;2022-11-20T01:03:44;100301.28;;;-0.08;54.63
34124;BME280;13153;52.316;21.166;2022-11-20T01:06:14;100299.69;;;-0.06;54.91
34124;BME280;13153;52.316;21.166;2022-11-20T01:08:40;100296.41;;;-0.03;54.65
34124;BME280;13153;52.316;21.166;2022-11-20T01:11:12;100298.09;;;-0.04;54.53
34124;BME280;13153;52.316;21.166;2022-11-20T01:13:39;100292.94;;;-0.04;54.81
34124;BME280;13153;52.316;21.166;2022-11-20T01:18:39;100283.50;;;-0.03;54.78
34124;BME280;13153;52.316;21.166;2022-11-20T01:21:30;100284.38;;;-0.03;54.84
34124;BME280;13153;52.316;21.166;2022-11-20T01:23:57;100277.78;;;0.03;54.93
34124;BME280;13153;52.316;21.166;2022-11-20T01:26:28;100279.69;;;0.05;54.92
34124;BME280;13153;52.316;21.166;2022-11-20T01:28:55;100271.84;;;0.04;54.82
34124;BME280;13153;52.316;21.166;2022-11-20T01:31:30;100269.25;;;0.04;54.89
34124;BME280;13153;52.316;21.166;2022-11-20T01:34:03;100273.03;;;-0.05;55.34
34124;BME280;13153;52.316;21.166;2022-11-20T01:36:32;100276.53;;;-0.04;55.11
34124;BME280;13153;52.316;21.166;2022-11-20T01:39:01;100268.88;;;-0.03;54.95
34124;BME280;13153;52.316;21.166;2022-11-20T01:41:30;100262.50;;;-0.08;55.11
34124;BME280;13153;52.316;21.166;2022-11-20T01:44:19;100265.09;;;-0.08;55.15
34124;BME280;13153;52.316;21.166;2022-11-20T01:47:13;100261.41;;;-0.11;55.34
34124;BME280;13153;52.316;21.166;2022-11-20T01:50:03;100268.16;;;-0.13;55.29
34124;BME280;13153;52.316;21.166;2022-11-20T01:52:45;100266.47;;;-0.13;55.35
34124;BME280;13153;52.316;21.166;2022-11-20T01:55:23;100265.78;;;-0.10;55.63
34124;BME280;13153;52.316;21.166;2022-11-20T01:57:51;100255.13;;;-0.15;55.53
34124;BME280;13153;52.316;21.166;2022-11-20T02:00:19;100261.50;;;-0.10;55.32
34124;BME280;13153;52.316;21.166;2022-11-20T02:02:54;100257.91;;;-0.12;55.93
34124;BME280;13153;52.316;21.166;2022-11-20T02:06:08;100255.34;;;-0.12;55.68
34124;BME280;13153;52.316;21.166;2022-11-20T02:08:37;100267.84;;;-0.18;55.42
34124;BME280;13153;52.316;21.166;2022-11-20T02:11:03;100265.78;;;-0.10;55.76
34124;BME280;13153;52.316;21.166;2022-11-20T02:13:29;100271.34;;;-0.04;55.30
34124;BME280;13153;52.316;21.166;2022-11-20T02:16:27;100276.91;;;0.02;55.84
34124;BME280;13153;52.316;21.166;2022-11-20T02:18:56;100269.03;;;0.00;55.60
34124;BME280;13153;52.316;21.166;2022-11-20T02:24:19;100267.56;;;0.04;55.35
34124;BME280;13153;52.316;21.166;2022-11-20T02:27:01;100271.13;;;0.06;55.31
34124;BME280;13153;52.316;21.166;2022-11-20T02:32:27;100272.13;;;0.08;55.45
34124;BME280;13153;52.316;21.166;2022-11-20T02:34:53;100266.06;;;0.08;55.51
34124;BME280;13153;52.316;21.166;2022-11-20T02:37:20;100269.44;;;0.07;55.43
34124;BME280;13153;52.316;21.166;2022-11-20T02:39:49;100272.13;;;0.08;55.38
34124;BME280;13153;52.316;21.166;2022-11-20T02:42:15;100271.25;;;0.08;55.63
34124;BME280;13153;52.316;21.166;2022-11-20T02:44:41;100273.13;;;0.10;55.59
34124;BME280;13153;52.316;21.166;2022-11-20T02:47:07;100279.09;;;0.09;55.24
34124;BME280;13153;52.316;21.166;2022-11-20T02:49:32;100274.81;;;0.10;55.53
34124;BME280;13153;52.316;21.166;2022-11-20T02:51:58;100275.63;;;0.09;55.54
34124;BME280;13153;52.316;21.166;2022-11-20T02:54:24;100283.19;;;0.06;55.43
34124;BME280;13153;52.316;21.166;2022-11-20T02:56:50;100281.47;;;0.06;55.81
34124;BME280;13153;52.316;21.166;2022-11-20T02:59:16;100280.28;;;0.01;55.59
34124;BME280;13153;52.316;21.166;2022-11-20T03:01:42;100275.94;;;0.00;56.27
34124;BME280;13153;52.316;21.166;2022-11-20T03:04:08;100267.19;;;-0.02;55.59
34124;BME280;13153;52.316;21.166;2022-11-20T03:06:34;100280.09;;;-0.02;56.00
34124;BME280;13153;52.316;21.166;2022-11-20T03:09:00;100269.66;;;-0.04;55.96
34124;BME280;13153;52.316;21.166;2022-11-20T03:11:25;100276.22;;;-0.09;56.20
34124;BME280;13153;52.316;21.166;2022-11-20T03:13:51;100268.38;;;-0.10;56.40
34124;BME280;13153;52.316;21.166;2022-11-20T03:16:20;100262.09;;;-0.14;56.49
34124;BME280;13153;52.316;21.166;2022-11-20T03:18:47;100260.09;;;-0.18;56.55
34124;BME280;13153;52.316;21.166;2022-11-20T03:21:14;100261.38;;;-0.24;56.77
34124;BME280;13153;52.316;21.166;2022-11-20T03:23:41;100255.31;;;-0.25;56.93
34124;BME280;13153;52.316;21.166;2022-11-20T03:26:14;100258.69;;;-0.26;56.82
34124;BME280;13153;52.316;21.166;2022-11-20T03:28:42;100252.50;;;-0.28;57.07
34124;BME280;13153;52.316;21.166;2022-11-20T03:31:14;100253.09;;;-0.32;57.52
34124;BME280;13153;52.316;21.166;2022-11-20T03:33:42;100257.47;;;-0.31;57.52
34124;BME280;13153;52.316;21.166;2022-11-20T03:36:11;100251.50;;;-0.30;57.73
34124;BME280;13153;52.316;21.166;2022-11-20T03:38:38;100245.94;;;-0.36;57.41
34124;BME280;13153;52.316;21.166;2022-11-20T03:41:12;100241.56;;;-0.37;57.61
34124;BME280;13153;52.316;21.166;2022-11-20T03:43:39;100251.59;;;-0.42;57.96
34124;BME280;13153;52.316;21.166;2022-11-20T03:46:05;100244.34;;;-0.34;57.58
34124;BME280;13153;52.316;21.166;2022-11-20T03:48:31;100249.41;;;-0.36;58.03
34124;BME280;13153;52.316;21.166;2022-11-20T03:53:39;100253.09;;;-0.32;57.80
34124;BME280;13153;52.316;21.166;2022-11-20T03:56:06;100242.66;;;-0.34;57.79
34124;BME280;13153;52.316;21.166;2022-11-20T03:58:34;100252.91;;;-0.35;57.66
34124;BME280;13153;52.316;21.166;2022-11-20T04:01:12;100240.97;;;-0.33;57.99
34124;BME280;13153;52.316;21.166;2022-11-20T04:03:41;100243.94;;;-0.40;58.21
34124;BME280;13153;52.316;21.166;2022-11-20T04:06:14;100238.34;;;-0.46;58.41
34124;BME280;13153;52.316;21.166;2022-11-20T04:08:41;100236.84;;;-0.56;58.66
34124;BME280;13153;52.316;21.166;2022-11-20T04:11:17;100240.22;;;-0.57;59.01
34124;BME280;13153;52.316;21.166;2022-11-20T04:13:49;100238.25;;;-0.61;58.96
34124;BME280;13153;52.316;21.166;2022-11-20T04:16:16;100232.06;;;-0.63;59.22
34124;BME280;13153;52.316;21.166;2022-11-20T04:18:42;100241.03;;;-0.58;59.32
34124;BME280;13153;52.316;21.166;2022-11-20T04:21:09;100243.78;;;-0.55;58.82
34124;BME280;13153;52.316;21.166;2022-11-20T04:23:35;100238.53;;;-0.56;58.71
34124;BME280;13153;52.316;21.166;2022-11-20T04:26:07;100240.94;;;-0.59;58.74
34124;BME280;13153;52.316;21.166;2022-11-20T04:28:34;100235.56;;;-0.62;58.69
34124;BME280;13153;52.316;21.166;2022-11-20T04:31:06;100229.06;;;-0.69;58.57
34124;BME280;13153;52.316;21.166;2022-11-20T04:33:34;100225.00;;;-0.65;58.60
34124;BME280;13153;52.316;21.166;2022-11-20T04:36:10;100222.63;;;-0.62;58.12
34124;BME280;13153;52.316;21.166;2022-11-20T04:38:36;100225.22;;;-0.62;58.33
34124;BME280;13153;52.316;21.166;2022-11-20T04:41:06;100218.94;;;-0.66;58.72
34124;BME280;13153;52.316;21.166;2022-11-20T04:43:33;100217.94;;;-0.68;58.40
34124;BME280;13153;52.316;21.166;2022-11-20T04:45:59;100214.38;;;-0.70;58.36
34124;BME280;13153;52.316;21.166;2022-11-20T04:48:27;100217.84;;;-0.70;58.26
34124;BME280;13153;52.316;21.166;2022-11-20T04:50:53;100217.75;;;-0.71;58.23
34124;BME280;13153;52.316;21.166;2022-11-20T04:53:21;100212.69;;;-0.70;58.48
34124;BME280;13153;52.316;21.166;2022-11-20T04:55:47;100217.63;;;-0.73;57.91
34124;BME280;13153;52.316;21.166;2022-11-20T04:58:13;100216.75;;;-0.73;57.98
34124;BME280;13153;52.316;21.166;2022-11-20T05:00:40;100211.56;;;-0.73;58.09
34124;BME280;13153;52.316;21.166;2022-11-20T05:03:06;100208.88;;;-0.75;58.01
34124;BME280;13153;52.316;21.166;2022-11-20T05:05:34;100211.69;;;-0.72;58.14
34124;BME280;13153;52.316;21.166;2022-11-20T05:08:00;100214.25;;;-0.72;58.11
34124;BME280;13153;52.316;21.166;2022-11-20T05:10:26;100215.16;;;-0.71;57.73
34124;BME280;13153;52.316;21.166;2022-11-20T05:12:52;100215.06;;;-0.73;57.36
34124;BME280;13153;52.316;21.166;2022-11-20T05:15:18;100219.44;;;-0.72;57.69
34124;BME280;13153;52.316;21.166;2022-11-20T05:17:52;100217.75;;;-0.71;57.77
34124;BME280;13153;52.316;21.166;2022-11-20T05:20:19;100210.56;;;-0.75;57.53
34124;BME280;13153;52.316;21.166;2022-11-20T05:22:45;100205.19;;;-0.78;57.53
34124;BME280;13153;52.316;21.166;2022-11-20T05:25:11;100214.75;;;-0.77;58.00
34124;BME280;13153;52.316;21.166;2022-11-20T05:27:38;100209.38;;;-0.80;57.73
34124;BME280;13153;52.316;21.166;2022-11-20T05:30:05;100206.88;;;-0.79;57.47
34124;BME280;13153;52.316;21.166;2022-11-20T05:32:31;100211.16;;;-0.79;57.62
34124;BME280;13153;52.316;21.166;2022-11-20T05:34:57;100212.75;;;-0.81;57.69
34124;BME280;13153;52.316;21.166;2022-11-20T05:37:23;100202.31;;;-0.83;57.67
34124;BME280;13153;52.316;21.166;2022-11-20T05:39:49;100200.41;;;-0.85;57.22
34124;BME280;13153;52.316;21.166;2022-11-20T05:42:14;100198.19;;;-0.92;57.97
34124;BME280;13153;52.316;21.166;2022-11-20T05:44:57;100199.47;;;-0.99;57.51
34124;BME280;13153;52.316;21.166;2022-11-20T05:47:23;100200.25;;;-1.00;57.78
34124;BME280;13153;52.316;21.166;2022-11-20T05:49:49;100198.25;;;-1.04;57.80
34124;BME280;13153;52.316;21.166;2022-11-20T05:52:14;100193.66;;;-1.08;57.63
34124;BME280;13153;52.316;21.166;2022-11-20T05:54:40;100195.81;;;-1.14;57.53
34124;BME280;13153;52.316;21.166;2022-11-20T05:57:06;100197.59;;;-1.13;57.89
34124;BME280;13153;52.316;21.166;2022-11-20T05:59:32;100205.16;;;-1.16;57.82
34124;BME280;13153;52.316;21.166;2022-11-20T06:01:57;100207.75;;;-1.16;58.01
34124;BME280;13153;52.316;21.166;2022-11-20T06:04:23;100201.69;;;-1.17;58.01
34124;BME280;13153;52.316;21.166;2022-11-20T06:06:49;100193.16;;;-1.16;57.86
34124;BME280;13153;52.316;21.166;2022-11-20T06:09:14;100195.75;;;-1.16;58.00
34124;BME280;13153;52.316;21.166;2022-11-20T06:11:40;100193.06;;;-1.17;57.80
34124;BME280;13153;52.316;21.166;2022-11-20T06:14:06;100189.38;;;-1.21;57.60
34124;BME280;13153;52.316;21.166;2022-11-20T06:16:32;100180.03;;;-1.19;57.57
34124;BME280;13153;52.316;21.166;2022-11-20T06:18:57;100181.84;;;-1.18;57.56
34124;BME280;13153;52.316;21.166;2022-11-20T06:21:24;100183.91;;;-1.12;57.32
34124;BME280;13153;52.316;21.166;2022-11-20T06:23:52;100190.19;;;-1.09;57.45
34124;BME280;13153;52.316;21.166;2022-11-20T06:26:25;100186.34;;;-1.02;57.41
34124;BME280;13153;52.316;21.166;2022-11-20T06:28:52;100191.91;;;-0.96;57.53
34124;BME280;13153;52.316;21.166;2022-11-20T06:31:21;100188.28;;;-0.86;57.51
34124;BME280;13153;52.316;21.166;2022-11-20T06:33:48;100190.22;;;-0.71;57.01
34124;BME280;13153;52.316;21.166;2022-11-20T06:36:16;100193.69;;;-0.57;56.74
34124;BME280;13153;52.316;21.166;2022-11-20T06:38:43;100196.31;;;-0.44;55.95
34124;BME280;13153;52.316;21.166;2022-11-20T06:41:16;100201.41;;;-0.32;56.00
34124;BME280;13153;52.316;21.166;2022-11-20T06:43:43;100191.28;;;-0.29;55.59
34124;BME280;13153;52.316;21.166;2022-11-20T06:46:12;100188.50;;;-0.19;55.02
34124;BME280;13153;52.316;21.166;2022-11-20T06:48:38;100190.00;;;-0.09;55.10
34124;BME280;13153;52.316;21.166;2022-11-20T06:51:05;100187.63;;;-0.06;54.73
34124;BME280;13153;52.316;21.166;2022-11-20T06:53:32;100195.25;;;0.06;54.59
34124;BME280;13153;52.316;21.166;2022-11-20T06:55:58;100179.13;;;0.23;53.79
34124;BME280;13153;52.316;21.166;2022-11-20T06:58:26;100176.13;;;0.30;53.44
34124;BME280;13153;52.316;21.166;2022-11-20T07:00:52;100169.03;;;0.41;52.98
34124;BME280;13153;52.316;21.166;2022-11-20T07:03:18;100165.56;;;0.40;53.17
34124;BME280;13153;52.316;21.166;2022-11-20T07:05:43;100167.13;;;0.51;52.74
34124;BME280;13153;52.316;21.166;2022-11-20T07:08:12;100161.88;;;0.64;52.80
34124;BME280;13153;52.316;21.166;2022-11-20T07:10:38;100166.41;;;0.82;52.18
34124;BME280;13153;52.316;21.166;2022-11-20T07:13:04;100161.38;;;0.98;51.93
34124;BME280;13153;52.316;21.166;2022-11-20T07:15:29;100165.78;;;1.14;51.42
34124;BME280;13153;52.316;21.166;2022-11-20T07:17:59;100164.44;;;1.35;50.69
34124;BME280;13153;52.316;21.166;2022-11-20T07:20:26;100167.47;;;1.43;50.24
34124;BME280;13153;52.316;21.166;2022-11-20T07:22:57;100161.75;;;1.48;50.79
34124;BME280;13153;52.316;21.166;2022-11-20T07:25:24;100162.84;;;1.67;50.26
34124;BME280;13153;52.316;21.166;2022-11-20T07:27:51;100166.63;;;1.88;49.81
34124;BME280;13153;52.316;21.166;2022-11-20T07:30:19;100158.84;;;2.03;49.96
34124;BME280;13153;52.316;21.166;2022-11-20T07:32:52;100165.69;;;2.17;49.01
34124;BME280;13153;52.316;21.166;2022-11-20T07:35:19;100152.59;;;2.30;48.88
34124;BME280;13153;52.316;21.166;2022-11-20T07:37:44;100153.16;;;2.41;48.41
34124;BME280;13153;52.316;21.166;2022-11-20T07:40:15;100154.72;;;2.53;48.45
34124;BME280;13153;52.316;21.166;2022-11-20T07:42:51;100158.97;;;2.68;48.79
34124;BME280;13153;52.316;21.166;2022-11-20T07:45:19;100153.38;;;2.76;47.41
34124;BME280;13153;52.316;21.166;2022-11-20T07:47:45;100150.69;;;2.75;47.21
34124;BME280;13153;52.316;21.166;2022-11-20T07:50:12;100148.25;;;2.78;48.04
34124;BME280;13153;52.316;21.166;2022-11-20T07:52:38;100161.56;;;2.84;47.08
34124;BME280;13153;52.316;21.166;2022-11-20T07:55:04;100151.66;;;2.77;47.60
34124;BME280;13153;52.316;21.166;2022-11-20T07:57:30;100152.06;;;2.84;48.52
34124;BME280;13153;52.316;21.166;2022-11-20T07:59:56;100145.06;;;2.99;47.58
34124;BME280;13153;52.316;21.166;2022-11-20T08:02:22;100143.19;;;3.13;48.61
34124;BME280;13153;52.316;21.166;2022-11-20T08:04:48;100138.84;;;3.30;47.70
34124;BME280;13153;52.316;21.166;2022-11-20T08:07:13;100138.44;;;3.39;47.55
34124;BME280;13153;52.316;21.166;2022-11-20T08:09:39;100142.84;;;3.57;47.41
34124;BME280;13153;52.316;21.166;2022-11-20T08:12:05;100145.22;;;3.71;47.62
34124;BME280;13153;52.316;21.166;2022-11-20T08:14:50;100139.28;;;3.73;46.88
34124;BME280;13153;52.316;21.166;2022-11-20T08:17:15;100139.78;;;3.66;47.34
34124;BME280;13153;52.316;21.166;2022-11-20T08:19:41;100144.56;;;3.75;46.85
34124;BME280;13153;52.316;21.166;2022-11-20T08:22:07;100147.63;;;3.84;47.44
34124;BME280;13153;52.316;21.166;2022-11-20T08:24:32;100141.16;;;3.93;47.62
34124;BME280;13153;52.316;21.166;2022-11-20T08:26:59;100146.06;;;3.87;47.52
34124;BME280;13153;52.316;21.166;2022-11-20T08:29:26;100144.81;;;3.97;47.38
34124;BME280;13153;52.316;21.166;2022-11-20T08:31:52;100140.13;;;3.90;46.91
34124;BME280;13153;52.316;21.166;2022-11-20T08:34:18;100140.13;;;3.90;47.28
34124;BME280;13153;52.316;21.166;2022-11-20T08:36:44;100130.56;;;4.08;46.82
34124;BME280;13153;52.316;21.166;2022-11-20T08:39:13;100137.91;;;4.35;47.26
34124;BME280;13153;52.316;21.166;2022-11-20T08:41:39;100133.81;;;4.40;46.41
34124;BME280;13153;52.316;21.166;2022-11-20T08:44:07;100128.81;;;4.63;46.28
34124;BME280;13153;52.316;21.166;2022-11-20T08:46:39;100132.13;;;4.79;46.16
34124;BME280;13153;52.316;21.166;2022-11-20T08:49:10;100132.00;;;4.76;46.17
34124;BME280;13153;52.316;21.166;2022-11-20T08:51:37;100120.91;;;4.60;45.81
34124;BME280;13153;52.316;21.166;2022-11-20T08:54:04;100122.88;;;4.47;46.03
34124;BME280;13153;52.316;21.166;2022-11-20T08:56:30;100114.41;;;4.33;47.02
34124;BME280;13153;52.316;21.166;2022-11-20T08:58:56;100110.78;;;4.12;47.42
34124;BME280;13153;52.316;21.166;2022-11-20T09:01:23;100123.75;;;3.92;47.79
34124;BME280;13153;52.316;21.166;2022-11-20T09:03:49;100115.13;;;3.93;47.90
34124;BME280;13153;52.316;21.166;2022-11-20T09:06:16;100112.28;;;4.07;47.72
34124;BME280;13153;52.316;21.166;2022-11-20T09:08:42;100102.16;;;4.13;47.94
34124;BME280;13153;52.316;21.166;2022-11-20T09:11:08;100104.13;;;4.36;47.50
34124;BME280;13153;52.316;21.166;2022-11-20T09:13:35;100100.59;;;4.53;47.51
34124;BME280;13153;52.316;21.166;2022-11-20T09:16:07;100101.41;;;4.52;47.46
34124;BME280;13153;52.316;21.166;2022-11-20T09:18:35;100100.44;;;4.50;47.86
34124;BME280;13153;52.316;21.166;2022-11-20T09:21:06;100104.16;;;4.55;47.55
34124;BME280;13153;52.316;21.166;2022-11-20T09:23:34;100102.75;;;4.63;46.99
34124;BME280;13153;52.316;21.166;2022-11-20T09:26:12;100095.91;;;4.65;47.40
34124;BME280;13153;52.316;21.166;2022-11-20T09:28:38;100091.59;;;4.66;47.62
34124;BME280;13153;52.316;21.166;2022-11-20T09:31:11;100088.66;;;4.78;47.01
34124;BME280;13153;52.316;21.166;2022-11-20T09:33:40;100085.63;;;4.88;47.04
34124;BME280;13153;52.316;21.166;2022-11-20T09:36:05;100085.22;;;4.98;47.43
34124;BME280;13153;52.316;21.166;2022-11-20T09:38:31;100071.38;;;4.80;47.30
34124;BME280;13153;52.316;21.166;2022-11-20T09:41:03;100072.81;;;4.73;47.81
34124;BME280;13153;52.316;21.166;2022-11-20T09:46:53;100062.09;;;4.67;47.89
34124;BME280;13153;52.316;21.166;2022-11-20T09:49:24;100061.06;;;4.63;48.22
34124;BME280;13153;52.316;21.166;2022-11-20T09:52:11;100067.41;;;4.49;49.17
34124;BME280;13153;52.316;21.166;2022-11-20T09:54:41;100063.31;;;4.54;49.09
34124;BME280;13153;52.316;21.166;2022-11-20T09:57:20;100061.97;;;4.64;48.69
34124;BME280;13153;52.316;21.166;2022-11-20T09:59:54;100064.38;;;4.79;48.32
34124;BME280;13153;52.316;21.166;2022-11-20T10:02:35;100057.72;;;4.85;48.35
34124;BME280;13153;52.316;21.166;2022-11-20T10:05:28;100054.06;;;5.01;48.01
34124;BME280;13153;52.316;21.166;2022-11-20T10:08:35;100061.66;;;5.16;48.27
34124;BME280;13153;52.316;21.166;2022-11-20T10:14:06;100059.41;;;5.25;47.89
34124;BME280;13153;52.316;21.166;2022-11-20T10:19:51;100056.94;;;5.07;48.60
34124;BME280;13153;52.316;21.166;2022-11-20T10:22:40;100052.25;;;5.19;48.19
34124;BME280;13153;52.316;21.166;2022-11-20T10:25:19;100050.00;;;5.28;48.41
34124;BME280;13153;52.316;21.166;2022-11-20T10:31:08;100043.13;;;5.51;48.35
34124;BME280;13153;52.316;21.166;2022-11-20T10:33:44;100047.25;;;5.46;47.69
34124;BME280;13153;52.316;21.166;2022-11-20T10:36:47;100045.84;;;5.34;48.30
34124;BME280;13153;52.316;21.166;2022-11-20T10:39:27;100031.72;;;5.28;48.93
34124;BME280;13153;52.316;21.166;2022-11-20T10:41:56;100032.38;;;5.23;48.78
34124;BME280;13153;52.316;21.166;2022-11-20T10:44:27;100031.25;;;5.16;49.12
34124;BME280;13153;52.316;21.166;2022-11-20T10:47:17;100024.38;;;5.18;49.13
34124;BME280;13153;52.316;21.166;2022-11-20T10:49:49;100031.06;;;5.12;48.68
34124;BME280;13153;52.316;21.166;2022-11-20T10:58:10;100033.72;;;5.13;48.67
34124;BME280;13153;52.316;21.166;2022-11-20T11:00:38;100038.53;;;5.04;49.16
34124;BME280;13153;52.316;21.166;2022-11-20T11:03:27;100029.91;;;5.05;49.51
34124;BME280;13153;52.316;21.166;2022-11-20T11:06:36;100037.66;;;5.04;49.09
34124;BME280;13153;52.316;21.166;2022-11-20T11:09:16;100030.72;;;5.04;48.73
34124;BME280;13153;52.316;21.166;2022-11-20T11:11:42;100022.78;;;5.01;49.58
34124;BME280;13153;52.316;21.166;2022-11-20T11:14:12;100016.66;;;5.01;49.49
34124;BME280;13153;52.316;21.166;2022-11-20T11:16:54;100017.69;;;5.04;49.54
34124;BME280;13153;52.316;21.166;2022-11-20T11:19:21;100019.41;;;5.04;49.88
34124;BME280;13153;52.316;21.166;2022-11-20T11:21:50;100020.22;;;5.03;49.87
34124;BME280;13153;52.316;21.166;2022-11-20T11:24:28;100017.81;;;5.07;50.08
34124;BME280;13153;52.316;21.166;2022-11-20T11:27:02;100014.56;;;5.13;49.86
34124;BME280;13153;52.316;21.166;2022-11-20T11:29:32;100013.44;;;5.06;49.54
34124;BME280;13153;52.316;21.166;2022-11-20T11:32:17;100009.94;;;5.06;49.52
34124;BME280;13153;52.316;21.166;2022-11-20T11:34:43;100010.81;;;5.06;49.69
34124;BME280;13153;52.316;21.166;2022-11-20T11:37:21;100020.34;;;5.06;49.55
34124;BME280;13153;52.316;21.166;2022-11-20T11:39:49;100020.28;;;5.04;49.67
34124;BME280;13153;52.316;21.166;2022-11-20T11:42:18;100025.44;;;5.03;49.72
34124;BME280;13153;52.316;21.166;2022-11-20T11:44:47;100015.66;;;4.97;49.80
34124;BME280;13153;52.316;21.166;2022-11-20T11:53:09;100009.53;;;4.96;50.39
34124;BME280;13153;52.316;21.166;2022-11-20T11:55:42;100002.53;;;4.95;50.43
34124;BME280;13153;52.316;21.166;2022-11-20T11:58:38;100001.38;;;4.89;50.15
34124;BME280;13153;52.316;21.166;2022-11-20T12:01:47;100003.72;;;4.83;50.15
34124;BME280;13153;52.316;21.166;2022-11-20T12:04:50;100000.09;;;4.79;50.20
34124;BME280;13153;52.316;21.166;2022-11-20T12:07:41;99988.59;;;4.74;50.82
34124;BME280;13153;52.316;21.166;2022-11-20T12:13:02;99986.88;;;4.75;50.53
34124;BME280;13153;52.316;21.166;2022-11-20T12:15:33;99980.06;;;4.78;51.02
34124;BME280;13153;52.316;21.166;2022-11-20T12:18:00;99980.91;;;4.77;50.59
34124;BME280;13153;52.316;21.166;2022-11-20T12:20:40;99973.03;;;4.76;50.81
34124;BME280;13153;52.316;21.166;2022-11-20T12:23:24;99981.84;;;4.79;51.10
34124;BME280;13153;52.316;21.166;2022-11-20T12:25:58;99976.25;;;4.70;50.81
34124;BME280;13153;52.316;21.166;2022-11-20T12:28:47;99964.03;;;4.69;50.78
34124;BME280;13153;52.316;21.166;2022-11-20T12:31:52;99971.25;;;4.75;50.81
34124;BME280;13153;52.316;21.166;2022-11-20T12:34:43;99962.59;;;4.76;50.91
34124;BME280;13153;52.316;21.166;2022-11-20T12:38:00;99960.56;;;4.69;50.62
34124;BME280;13153;52.316;21.166;2022-11-20T12:40:58;99957.66;;;4.61;50.42
34124;BME280;13153;52.316;21.166;2022-11-20T12:43:37;99949.75;;;4.59;50.83
34124;BME280;13153;52.316;21.166;2022-11-20T12:46:46;99961.06;;;4.60;50.54
34124;BME280;13153;52.316;21.166;2022-11-20T12:55:28;99949.38;;;4.50;50.69
34124;BME280;13153;52.316;21.166;2022-11-20T12:58:08;99944.03;;;4.47;50.96
34124;BME280;13153;52.316;21.166;2022-11-20T13:00:47;99940.72;;;4.51;50.69
34124;BME280;13153;52.316;21.166;2022-11-20T13:03:51;99940.59;;;4.48;51.06
34124;BME280;13153;52.316;21.166;2022-11-20T13:06:25;99937.84;;;4.45;51.16
34124;BME280;13153;52.316;21.166;2022-11-20T13:08:55;99934.28;;;4.43;50.95
34124;BME280;13153;52.316;21.166;2022-11-20T13:11:29;99934.44;;;4.46;51.12
34124;BME280;13153;52.316;21.166;2022-11-20T13:14:31;99924.97;;;4.48;50.71
34124;BME280;13153;52.316;21.166;2022-11-20T13:17:28;99924.06;;;4.48;50.83
34124;BME280;13153;52.316;21.166;2022-11-20T13:19:59;99928.41;;;4.47;50.75
34124;BME280;13153;52.316;21.166;2022-11-20T13:25:32;99921.72;;;4.54;50.93
34124;BME280;13153;52.316;21.166;2022-11-20T13:30:36;99925.59;;;4.43;52.05
34124;BME280;13153;52.316;21.166;2022-11-20T13:33:09;99915.31;;;4.46;51.88
34124;BME280;13153;52.316;21.166;2022-11-20T13:36:07;99910.09;;;4.46;51.60
34124;BME280;13153;52.316;21.166;2022-11-20T13:38:51;99894.69;;;4.31;51.38
34124;BME280;13153;52.316;21.166;2022-11-20T13:41:35;99901.94;;;4.38;51.27
34124;BME280;13153;52.316;21.166;2022-11-20T13:44:23;99905.31;;;4.36;50.97
34124;BME280;13153;52.316;21.166;2022-11-20T13:46:50;99902.84;;;4.39;51.60
34124;BME280;13153;52.316;21.166;2022-11-20T13:49:38;99904.69;;;4.41;51.93
34124;BME280;13153;52.316;21.166;2022-11-20T13:55:50;99897.91;;;4.45;51.91
34124;BME280;13153;52.316;21.166;2022-11-20T14:01:28;99894.28;;;4.41;51.82
34124;BME280;13153;52.316;21.166;2022-11-20T14:03:55;99891.53;;;4.38;51.70
34124;BME280;13153;52.316;21.166;2022-11-20T14:06:29;99892.41;;;4.39;52.09
34124;BME280;13153;52.316;21.166;2022-11-20T14:08:56;99899.28;;;4.37;52.07